Time;durP1;ratioP1;P1;durP2;ratioP2;P2;SDS_P1;SDS_P2;PMS_P1;PMS_P2;Temp;Humidity;BMP_temperature;BMP_pressure;BME280_temperature;BME280_humidity;BME280_pressure;Samples;Min_cycle;Max_cycle;Signal;HPM_P1;HPM_P2
2022/06/22 00:01:42;;;;;;;4.50;3.17;;;;;;;;;;10318468;28;20026;-58
2022/06/22 00:06:49;;;;;;;7.47;2.97;;;;;;;;;;10325833;28;20026;-58
2022/06/22 00:11:51;;;;;;;6.57;3.17;;;;;;;;;;10319975;28;20034;-58
2022/06/22 00:16:55;;;;;;;3.38;2.83;;;;;;;;;;10325170;28;20026;-58
2022/06/22 00:21:57;;;;;;;6.60;3.25;;;;;;;;;;10335938;28;20408;-58
2022/06/22 00:27:37;;;;;;;6.35;3.15;;;;;;;;;;10327498;28;20034;-58
2022/06/22 00:32:38;;;;;;;3.83;2.97;;;;;;;;;;10319976;28;20117;-58
2022/06/22 00:37:38;;;;;;;4.93;3.03;;;;;;;;;;10326288;28;20035;-59
2022/06/22 00:42:47;;;;;;;5.70;3.03;;;;;;;;;;10324890;28;20026;-59
2022/06/22 00:47:59;;;;;;;4.95;2.38;;;;;;;;;;10325541;28;20030;-59
2022/06/22 00:53:24;;;;;;;6.00;3.28;;;;;;;;;;10323148;28;20078;-60
2022/06/22 00:59:01;;;;;;;5.18;3.10;;;;;;;;;;10317582;28;20041;-59
2022/06/22 01:04:12;;;;;;;3.67;2.85;;;;;;;;;;10323207;28;20534;-59
2022/06/22 01:09:41;;;;;;;4.97;3.10;;;;;;;;;;10311626;28;20126;-58
2022/06/22 01:15:23;;;;;;;8.00;2.92;;;;;;;;;;10313563;28;20026;-58
2022/06/22 01:21:09;;;;;;;4.97;2.78;;;;;;;;;;10319233;28;20018;-59
2022/06/22 01:26:48;;;;;;;5.05;2.90;;;;;;;;;;10329380;28;20039;-58
2022/06/22 01:32:07;;;;;;;2.58;2.25;;;;;;;;;;10319069;28;20042;-59
2022/06/22 01:37:22;;;;;;;8.07;2.67;;;;;;;;;;10331482;28;20030;-58
2022/06/22 01:42:29;;;;;;;4.90;2.95;;;;;;;;;;10331046;28;20034;-58
2022/06/22 01:47:44;;;;;;;6.38;3.03;;;;;;;;;;10331777;28;20038;-59
2022/06/22 01:53:06;;;;;;;6.38;2.60;;;;;;;;;;10331386;28;20132;-58
2022/06/22 01:58:28;;;;;;;5.18;2.97;;;;;;;;;;10330758;28;20114;-57
2022/06/22 02:03:43;;;;;;;5.22;2.80;;;;;;;;;;10330308;28;20026;-57
2022/06/22 02:08:44;;;;;;;5.65;2.60;;;;;;;;;;10329301;28;20121;-58
2022/06/22 02:14:12;;;;;;;4.57;2.78;;;;;;;;;;10328652;28;20027;-58
2022/06/22 02:19:16;;;;;;;4.07;2.60;;;;;;;;;;10305205;28;20030;-57
2022/06/22 02:24:33;;;;;;;2.55;2.30;;;;;;;;;;10328917;28;20030;-57
2022/06/22 02:29:39;;;;;;;3.83;2.28;;;;;;;;;;10330273;28;20033;-57
2022/06/22 02:34:46;;;;;;;5.05;2.67;;;;;;;;;;10326156;28;20034;-57
2022/06/22 02:39:56;;;;;;;5.28;2.70;;;;;;;;;;10328232;28;20045;-57
2022/06/22 02:44:56;;;;;;;3.30;2.22;;;;;;;;;;10328849;28;20367;-56
2022/06/22 02:50:23;;;;;;;3.85;2.13;;;;;;;;;;10328042;28;20030;-56
2022/06/22 02:55:31;;;;;;;3.28;2.58;;;;;;;;;;10315929;28;20129;-57
2022/06/22 03:00:38;;;;;;;5.40;2.63;;;;;;;;;;10328884;28;20031;-59
2022/06/22 03:05:43;;;;;;;4.00;2.30;;;;;;;;;;10325550;28;20051;-58
2022/06/22 03:11:04;;;;;;;4.40;2.67;;;;;;;;;;10328422;28;20489;-60
2022/06/22 03:16:07;;;;;;;7.93;2.50;;;;;;;;;;10326400;28;20027;-57
2022/06/22 03:21:13;;;;;;;6.65;2.72;;;;;;;;;;10326118;28;20031;-58
2022/06/22 03:26:23;;;;;;;4.40;2.58;;;;;;;;;;10321904;28;20105;-58
2022/06/22 03:31:36;;;;;;;8.18;2.70;;;;;;;;;;10320399;28;20363;-58
2022/06/22 03:36:45;;;;;;;6.20;2.42;;;;;;;;;;10326206;28;20027;-58
2022/06/22 03:41:58;;;;;;;3.53;2.60;;;;;;;;;;10326001;28;20077;-57
2022/06/22 03:47:14;;;;;;;3.88;2.30;;;;;;;;;;10311248;28;20027;-56
2022/06/22 03:52:47;;;;;;;3.53;2.60;;;;;;;;;;10325716;28;20621;-59
2022/06/22 03:57:52;;;;;;;5.47;2.47;;;;;;;;;;10325747;28;20038;-58
2022/06/22 04:02:54;;;;;;;5.55;2.13;;;;;;;;;;10314342;28;20030;-59
2022/06/22 04:07:55;;;;;;;3.60;2.20;;;;;;;;;;10325540;28;20045;-59
2022/06/22 04:12:57;;;;;;;6.53;2.53;;;;;;;;;;10304158;28;20034;-58
2022/06/22 04:18:11;;;;;;;6.60;2.35;;;;;;;;;;10318159;28;20037;-59
2022/06/22 04:23:13;;;;;;;4.63;2.45;;;;;;;;;;10325091;28;20022;-59
2022/06/22 04:28:17;;;;;;;2.50;2.00;;;;;;;;;;10325563;28;20034;-59
2022/06/22 04:33:43;;;;;;;2.22;1.92;;;;;;;;;;10323792;28;20030;-58
2022/06/22 04:39:05;;;;;;;8.15;2.22;;;;;;;;;;10324519;28;20034;-58
2022/06/22 04:44:20;;;;;;;3.90;2.03;;;;;;;;;;10320009;28;20034;-59
2022/06/22 04:49:35;;;;;;;3.92;1.90;;;;;;;;;;10316714;28;20038;-58
2022/06/22 04:54:41;;;;;;;4.22;2.40;;;;;;;;;;10332659;28;20057;-58
2022/06/22 04:59:42;;;;;;;3.92;1.95;;;;;;;;;;10334959;28;20266;-58
2022/06/22 05:04:50;;;;;;;4.70;2.30;;;;;;;;;;10330827;28;20027;-58
2022/06/22 05:10:21;;;;;;;5.07;1.97;;;;;;;;;;10332545;28;20121;-58
2022/06/22 05:15:34;;;;;;;6.25;2.85;;;;;;;;;;10330072;28;20070;-58
2022/06/22 05:20:45;;;;;;;11.35;3.60;;;;;;;;;;10302441;28;20443;-58
2022/06/22 05:25:51;;;;;;;14.77;3.17;;;;;;;;;;10319779;28;20066;-59
2022/06/22 05:31:26;;;;;;;15.82;3.88;;;;;;;;;;10320737;28;20057;-59
2022/06/22 05:36:31;;;;;;;18.55;4.10;;;;;;;;;;10318056;28;20489;-59
2022/06/22 05:41:37;;;;;;;20.00;4.13;;;;;;;;;;10322915;28;20031;-64
2022/06/22 05:46:49;;;;;;;17.65;4.07;;;;;;;;;;10320268;28;20153;-60
2022/06/22 05:52:06;;;;;;;18.63;3.85;;;;;;;;;;10328670;28;20038;-62
2022/06/22 05:57:12;;;;;;;21.38;5.78;;;;;;;;;;10316104;28;20389;-59
2022/06/22 06:02:37;;;;;;;29.35;5.63;;;;;;;;;;10317135;28;20019;-62
2022/06/22 06:07:52;;;;;;;22.65;4.80;;;;;;;;;;10328717;28;20034;-60
2022/06/22 06:13:00;;;;;;;15.70;4.63;;;;;;;;;;10307405;28;20486;-59
2022/06/22 06:18:02;;;;;;;27.70;4.75;;;;;;;;;;10329813;28;20028;-56
2022/06/22 06:23:37;;;;;;;22.15;4.47;;;;;;;;;;10326422;28;20049;-59
2022/06/22 06:29:05;;;;;;;12.98;4.35;;;;;;;;;;10326683;28;20074;-59
2022/06/22 06:34:44;;;;;;;19.80;4.15;;;;;;;;;;10328529;28;20026;-60
2022/06/22 06:39:48;;;;;;;13.00;3.50;;;;;;;;;;10331662;28;20052;-59
2022/06/22 06:44:51;;;;;;;15.55;3.67;;;;;;;;;;10324779;28;20417;-59
2022/06/22 06:50:11;;;;;;;12.27;4.38;;;;;;;;;;10326612;28;20477;-59
2022/06/22 06:55:34;;;;;;;17.70;3.65;;;;;;;;;;10324799;28;20035;-59
2022/06/22 07:00:34;;;;;;;16.77;3.83;;;;;;;;;;10321169;28;20030;-56
2022/06/22 07:05:35;;;;;;;15.05;3.70;;;;;;;;;;10321214;28;20442;-60
2022/06/22 07:11:03;;;;;;;16.15;3.75;;;;;;;;;;10324749;28;20058;-59
2022/06/22 07:16:12;;;;;;;14.20;3.47;;;;;;;;;;10326738;28;20386;-58
2022/06/22 07:21:43;;;;;;;13.02;3.70;;;;;;;;;;10321874;28;20034;-57
2022/06/22 07:27:23;;;;;;;13.73;3.72;;;;;;;;;;10325075;28;20033;-58
2022/06/22 07:32:43;;;;;;;12.45;4.25;;;;;;;;;;10322040;28;20451;-59
2022/06/22 07:38:02;;;;;;;17.70;3.80;;;;;;;;;;10321564;28;20451;-59
2022/06/22 07:43:03;;;;;;;13.38;4.15;;;;;;;;;;10323031;28;20059;-59
2022/06/22 07:48:19;;;;;;;12.05;4.03;;;;;;;;;;10308009;28;20556;-59
2022/06/22 07:53:32;;;;;;;10.43;3.58;;;;;;;;;;10297178;28;20600;-58
2022/06/22 07:58:49;;;;;;;13.52;4.07;;;;;;;;;;10290686;28;20034;-58
2022/06/22 08:04:03;;;;;;;10.13;3.63;;;;;;;;;;10291075;28;20031;-56
2022/06/22 08:09:11;;;;;;;13.00;4.15;;;;;;;;;;10290325;28;20468;-57
2022/06/22 08:14:38;;;;;;;12.93;4.07;;;;;;;;;;10299700;28;20080;-58
2022/06/22 08:19:40;;;;;;;18.25;4.90;;;;;;;;;;10317217;28;20551;-56
2022/06/22 08:24:48;;;;;;;15.18;4.50;;;;;;;;;;10322696;28;20395;-56
2022/06/22 08:29:51;;;;;;;11.35;5.13;;;;;;;;;;10320417;28;20117;-56
2022/06/22 08:34:55;;;;;;;13.95;5.20;;;;;;;;;;10310877;28;20064;-55
2022/06/22 08:40:18;;;;;;;11.27;5.30;;;;;;;;;;10324468;28;20065;-56
2022/06/22 08:45:45;;;;;;;11.57;4.80;;;;;;;;;;10323585;28;20026;-59
2022/06/22 08:51:24;;;;;;;14.13;4.87;;;;;;;;;;10322020;28;20409;-56
2022/06/22 08:56:43;;;;;;;11.23;4.25;;;;;;;;;;10310630;28;20043;-55
2022/06/22 09:02:11;;;;;;;12.75;4.72;;;;;;;;;;10298913;28;20099;-57
2022/06/22 09:07:26;;;;;;;12.68;4.10;;;;;;;;;;10313463;28;20409;-57
2022/06/22 09:13:00;;;;;;;12.00;3.92;;;;;;;;;;10319887;28;20030;-55
2022/06/22 09:18:27;;;;;;;14.65;4.45;;;;;;;;;;10292021;28;20037;-58
2022/06/22 09:23:47;;;;;;;17.85;4.38;;;;;;;;;;10296618;28;20035;-58
2022/06/22 09:29:11;;;;;;;18.25;4.75;;;;;;;;;;10308288;28;20034;-54
2022/06/22 09:34:36;;;;;;;13.73;4.40;;;;;;;;;;10303338;28;20051;-58
2022/06/22 09:40:13;;;;;;;22.02;5.43;;;;;;;;;;10322330;28;20026;-60
2022/06/22 09:45:38;;;;;;;16.90;4.65;;;;;;;;;;10305994;28;20034;-59
2022/06/22 09:51:03;;;;;;;12.20;4.07;;;;;;;;;;10318194;28;20039;-57
2022/06/22 09:56:28;;;;;;;14.25;4.35;;;;;;;;;;10319858;28;20131;-57
2022/06/22 10:01:59;;;;;;;21.38;4.45;;;;;;;;;;10325238;28;20026;-56
2022/06/22 10:07:33;;;;;;;12.20;4.30;;;;;;;;;;10317475;28;20401;-58
2022/06/22 10:12:56;;;;;;;14.20;4.53;;;;;;;;;;10314310;28;20026;-56
2022/06/22 10:18:30;;;;;;;17.58;5.15;;;;;;;;;;10316510;28;20023;-57
2022/06/22 10:23:48;;;;;;;22.98;5.15;;;;;;;;;;10312443;28;20541;-56
2022/06/22 10:29:25;;;;;;;23.13;4.88;;;;;;;;;;10316991;28;20046;-57
2022/06/22 10:34:48;;;;;;;11.10;4.07;;;;;;;;;;10324255;28;20449;-55
2022/06/22 10:45:08;;;;;;;14.90;4.47;;;;;;;;;;10320629;28;20124;-57
2022/06/22 10:45:46;;;;;;;17.50;4.78;;;;;;;;;;10314036;28;20038;-60
2022/06/22 10:51:19;;;;;;;8.77;3.75;;;;;;;;;;10324696;28;20333;-56
2022/06/22 10:57:04;;;;;;;9.27;4.07;;;;;;;;;;10328292;28;20046;-57
2022/06/22 11:02:35;;;;;;;17.42;5.03;;;;;;;;;;10311145;28;20045;-56
2022/06/22 11:07:44;;;;;;;13.05;4.15;;;;;;;;;;10327456;28;20568;-56
2022/06/22 11:13:09;;;;;;;10.57;4.03;;;;;;;;;;10320738;28;20031;-56
2022/06/22 11:18:38;;;;;;;13.70;3.80;;;;;;;;;;10327323;28;20240;-56
2022/06/22 11:23:44;;;;;;;14.00;4.18;;;;;;;;;;10329177;28;20034;-57
2022/06/22 11:34:55;;;;;;;9.05;4.15;;;;;;;;;;10325849;28;20057;-58
2022/06/22 11:40:53;;;;;;;20.70;4.97;;;;;;;;;;10324757;28;20061;-59
2022/06/22 11:46:21;;;;;;;17.33;4.93;;;;;;;;;;10275158;28;20125;-59
2022/06/22 11:51:46;;;;;;;18.00;4.50;;;;;;;;;;10277247;28;20046;-58
2022/06/22 11:56:55;;;;;;;17.35;4.63;;;;;;;;;;10278020;28;20038;-58
2022/06/22 12:02:23;;;;;;;15.07;4.82;;;;;;;;;;10276618;28;20130;-57
2022/06/22 12:08:01;;;;;;;17.40;4.75;;;;;;;;;;10278244;28;20043;-58
2022/06/22 12:13:11;;;;;;;14.75;5.05;;;;;;;;;;10259761;28;20054;-58
2022/06/22 12:18:56;;;;;;;14.15;5.30;;;;;;;;;;10318334;28;20482;-55
2022/06/22 12:24:16;;;;;;;17.88;4.90;;;;;;;;;;10319700;28;20035;-56
2022/06/22 12:30:03;;;;;;;13.05;4.85;;;;;;;;;;10322004;28;20030;-56
2022/06/22 12:35:51;;;;;;;11.57;4.40;;;;;;;;;;10322191;28;20038;-59
2022/06/22 12:41:17;;;;;;;12.32;4.85;;;;;;;;;;10311444;28;20078;-57
2022/06/22 12:46:54;;;;;;;18.33;5.53;;;;;;;;;;10312931;28;20385;-58
2022/06/22 12:52:15;;;;;;;26.63;5.20;;;;;;;;;;10311240;28;20049;-59
2022/06/22 12:57:22;;;;;;;17.00;4.90;;;;;;;;;;10323428;28;20026;-59
2022/06/22 13:02:31;;;;;;;14.97;4.63;;;;;;;;;;10321207;28;20034;-58
2022/06/22 13:07:42;;;;;;;14.40;5.40;;;;;;;;;;10313822;28;20045;-58
2022/06/22 13:12:59;;;;;;;14.43;4.90;;;;;;;;;;10325512;28;20121;-59
2022/06/22 13:18:11;;;;;;;13.80;5.25;;;;;;;;;;10330923;28;20038;-59
2022/06/22 13:23:51;;;;;;;11.55;4.32;;;;;;;;;;10330430;28;20042;-59
2022/06/22 13:29:24;;;;;;;14.27;4.85;;;;;;;;;;10316340;28;20197;-59
2022/06/22 13:34:36;;;;;;;11.10;4.88;;;;;;;;;;10320054;28;20430;-57
2022/06/22 13:40:07;;;;;;;9.95;4.43;;;;;;;;;;10329764;28;20022;-57
2022/06/22 13:45:59;;;;;;;7.80;3.90;;;;;;;;;;10331447;28;20018;-57
2022/06/22 13:51:35;;;;;;;13.55;4.80;;;;;;;;;;10299830;28;20035;-58
2022/06/22 13:57:07;;;;;;;7.70;4.10;;;;;;;;;;10328150;28;20098;-56
2022/06/22 14:02:45;;;;;;;10.10;4.30;;;;;;;;;;10325432;28;20034;-56
2022/06/22 14:08:02;;;;;;;10.90;4.55;;;;;;;;;;10326573;28;20509;-56
2022/06/22 14:13:20;;;;;;;14.57;4.85;;;;;;;;;;10329606;28;20058;-57
2022/06/22 14:18:30;;;;;;;11.45;3.95;;;;;;;;;;10330401;28;20035;-54
2022/06/22 14:23:33;;;;;;;8.48;4.18;;;;;;;;;;10340511;28;20022;-56
2022/06/22 14:28:53;;;;;;;7.82;4.00;;;;;;;;;;10328084;28;20062;-56
2022/06/22 14:34:26;;;;;;;6.47;3.88;;;;;;;;;;10322337;28;20391;-58
2022/06/22 14:39:40;;;;;;;8.23;4.25;;;;;;;;;;10322980;28;20022;-56
2022/06/22 14:45:10;;;;;;;6.72;4.05;;;;;;;;;;10322400;28;20034;-57
2022/06/22 14:50:33;;;;;;;7.38;3.88;;;;;;;;;;10324525;28;20065;-56
2022/06/22 14:55:56;;;;;;;9.77;4.20;;;;;;;;;;10328063;28;20043;-55
2022/06/22 15:01:07;;;;;;;9.63;4.28;;;;;;;;;;10324240;28;20038;-56
2022/06/22 15:06:32;;;;;;;15.38;4.22;;;;;;;;;;10313894;28;20126;-56
2022/06/22 15:17:24;;;;;;;10.10;4.15;;;;;;;;;;10322214;28;20038;-56
2022/06/22 15:22:40;;;;;;;11.30;4.30;;;;;;;;;;10313793;28;20041;-57
2022/06/22 15:27:57;;;;;;;11.82;4.60;;;;;;;;;;10318272;28;20034;-57
2022/06/22 15:33:00;;;;;;;10.65;3.97;;;;;;;;;;10318354;28;20489;-57
2022/06/22 15:38:13;;;;;;;13.50;4.25;;;;;;;;;;10307073;28;20390;-55
2022/06/22 15:43:28;;;;;;;10.52;3.80;;;;;;;;;;10326877;28;20073;-58
2022/06/22 15:48:43;;;;;;;12.45;3.58;;;;;;;;;;10326395;28;20089;-59
2022/06/22 15:53:49;;;;;;;6.90;3.63;;;;;;;;;;10319587;28;20038;-57
2022/06/22 15:58:57;;;;;;;9.60;4.25;;;;;;;;;;10313478;28;20121;-57
2022/06/22 16:04:14;;;;;;;6.00;3.33;;;;;;;;;;10316113;28;20042;-59
2022/06/22 16:09:31;;;;;;;11.10;3.92;;;;;;;;;;10311555;28;20062;-54
2022/06/22 16:14:50;;;;;;;;;;;;;;;;;;10323783;28;20322;-57
2022/06/22 16:20:11;;;;;;;11.65;3.72;;;;;;;;;;10325273;28;19921;-58
2022/06/22 16:25:19;;;;;;;8.90;4.00;;;;;;;;;;10322297;28;20026;-56
2022/06/22 16:31:12;;;;;;;8.40;3.70;;;;;;;;;;10310827;28;20564;-54
2022/06/22 16:36:39;;;;;;;15.82;3.83;;;;;;;;;;10303356;28;20035;-58
2022/06/22 16:41:57;;;;;;;7.38;3.80;;;;;;;;;;10312007;28;20539;-57
2022/06/22 16:47:09;;;;;;;12.07;3.88;;;;;;;;;;10306683;28;20039;-58
2022/06/22 16:52:39;;;;;;;10.13;3.85;;;;;;;;;;10312046;28;20038;-58
2022/06/22 16:57:50;;;;;;;10.38;4.18;;;;;;;;;;10308101;28;20104;-58
2022/06/22 17:03:01;;;;;;;7.75;3.88;;;;;;;;;;10313498;28;20035;-57
2022/06/22 17:08:22;;;;;;;7.30;3.50;;;;;;;;;;10325044;28;20151;-57
2022/06/22 17:13:40;;;;;;;7.75;3.67;;;;;;;;;;10307643;28;20116;-58
2022/06/22 17:18:43;;;;;;;9.43;3.72;;;;;;;;;;10309941;28;20088;-58
2022/06/22 17:24:03;;;;;;;8.40;3.50;;;;;;;;;;10308522;28;20494;-57
2022/06/22 17:29:27;;;;;;;6.65;3.63;;;;;;;;;;10322627;28;20123;-57
2022/06/22 17:35:26;;;;;;;8.05;3.45;;;;;;;;;;10316724;28;20405;-57
2022/06/22 17:40:56;;;;;;;13.35;4.28;;;;;;;;;;10238075;28;20448;-59
2022/06/22 17:46:09;;;;;;;8.38;3.67;;;;;;;;;;10323644;28;20482;-59
2022/06/22 17:51:25;;;;;;;11.68;3.72;;;;;;;;;;10310647;28;20046;-56
2022/06/22 17:56:27;;;;;;;17.55;5.95;;;;;;;;;;10324376;28;20054;-56
2022/06/22 18:01:38;;;;;;;18.60;5.80;;;;;;;;;;10328454;28;20065;-58
2022/06/22 18:06:46;;;;;;;11.68;4.88;;;;;;;;;;10306611;28;20093;-57
2022/06/22 18:11:51;;;;;;;15.90;4.90;;;;;;;;;;10316721;28;20096;-57
2022/06/22 18:16:59;;;;;;;11.90;4.35;;;;;;;;;;10320912;28;20033;-58
2022/06/22 18:22:12;;;;;;;9.70;4.32;;;;;;;;;;10330912;28;20045;-58
2022/06/22 18:27:13;;;;;;;16.63;5.22;;;;;;;;;;10328603;28;20300;-62
2022/06/22 18:32:41;;;;;;;18.20;5.55;;;;;;;;;;10293268;28;20182;-57
2022/06/22 18:38:12;;;;;;;16.33;5.93;;;;;;;;;;10319733;28;20041;-57
2022/06/22 18:43:18;;;;;;;12.13;5.15;;;;;;;;;;10310047;28;20034;-57
2022/06/22 18:48:30;;;;;;;14.48;5.00;;;;;;;;;;10314568;28;20344;-56
2022/06/22 18:54:01;;;;;;;15.52;5.50;;;;;;;;;;10314120;28;20501;-57
2022/06/22 18:59:22;;;;;;;10.65;4.90;;;;;;;;;;10337098;28;20106;-58
2022/06/22 19:04:31;;;;;;;21.85;5.63;;;;;;;;;;10310700;28;20032;-59
2022/06/22 19:09:34;;;;;;;23.15;5.07;;;;;;;;;;10313178;28;20031;-55
2022/06/22 19:14:39;;;;;;;10.57;4.93;;;;;;;;;;10317712;28;20565;-53
2022/06/22 19:20:19;;;;;;;11.27;4.53;;;;;;;;;;10326529;28;20030;-53
2022/06/22 19:25:38;;;;;;;13.98;4.35;;;;;;;;;;10314346;28;20091;-58
2022/06/22 19:31:01;;;;;;;13.70;4.55;;;;;;;;;;10327901;28;20029;-54
2022/06/22 19:36:06;;;;;;;11.15;4.75;;;;;;;;;;10323930;28;20042;-57
2022/06/22 19:41:47;;;;;;;7.38;4.57;;;;;;;;;;10314865;28;20466;-56
2022/06/22 19:47:24;;;;;;;8.57;4.25;;;;;;;;;;10320446;28;20417;-55
2022/06/22 19:52:58;;;;;;;7.95;4.55;;;;;;;;;;10318275;28;20065;-57
2022/06/22 19:57:59;;;;;;;7.85;4.35;;;;;;;;;;10324747;28;20583;-57
2022/06/22 20:03:21;;;;;;;13.32;4.20;;;;;;;;;;10322722;28;20034;-54
2022/06/22 20:08:30;;;;;;;16.13;4.35;;;;;;;;;;10322641;28;20749;-62
2022/06/22 20:14:00;;;;;;;10.15;4.10;;;;;;;;;;10317060;28;20041;-61
2022/06/22 20:19:01;;;;;;;8.55;4.15;;;;;;;;;;10316315;28;20025;-59
2022/06/22 20:24:49;;;;;;;11.05;4.47;;;;;;;;;;10314436;28;20034;-60
2022/06/22 20:30:12;;;;;;;9.15;4.22;;;;;;;;;;10249636;28;20126;-60
2022/06/22 20:35:57;;;;;;;6.05;4.20;;;;;;;;;;10223800;28;20427;-59
2022/06/22 20:47:22;;;;;;;7.40;3.65;;;;;;;;;;10234987;29;20035;-59
2022/06/22 20:52:23;;;;;;;6.80;3.47;;;;;;;;;;10225868;28;20059;-59
2022/06/22 20:57:38;;;;;;;6.57;3.22;;;;;;;;;;10238193;28;20105;-59
2022/06/22 21:02:41;;;;;;;9.32;4.15;;;;;;;;;;10274831;28;20046;-60
2022/06/22 21:07:42;;;;;;;5.50;3.58;;;;;;;;;;10319314;28;20022;-58
2022/06/22 21:13:09;;;;;;;4.75;3.13;;;;;;;;;;10316029;28;20074;-58
2022/06/22 21:18:09;;;;;;;9.40;3.53;;;;;;;;;;10299430;28;20030;-62
2022/06/22 21:23:39;;;;;;;19.30;3.77;;;;;;;;;;10319743;28;20502;-60
2022/06/22 21:34:23;;;;;;;4.57;3.20;;;;;;;;;;10321429;28;20034;-59
2022/06/22 21:39:33;;;;;;;10.48;4.57;;;;;;;;;;10323456;28;20258;-62
2022/06/22 21:45:09;;;;;;;5.38;3.10;;;;;;;;;;10328536;28;20150;-59
2022/06/22 21:50:34;;;;;;;8.27;3.20;;;;;;;;;;10333724;28;20453;-53
2022/06/22 21:55:41;;;;;;;9.10;3.42;;;;;;;;;;10329801;28;20038;-57
2022/06/22 22:00:56;;;;;;;5.30;3.60;;;;;;;;;;10325704;28;20485;-56
2022/06/22 22:06:11;;;;;;;6.38;3.45;;;;;;;;;;10321539;28;20529;-59
2022/06/22 22:11:13;;;;;;;6.03;3.33;;;;;;;;;;10327205;28;20061;-61
2022/06/22 22:16:21;;;;;;;7.53;3.72;;;;;;;;;;10322475;28;20478;-58
2022/06/22 22:21:38;;;;;;;5.00;3.05;;;;;;;;;;10315729;28;20033;-61
2022/06/22 22:26:50;;;;;;;4.85;2.88;;;;;;;;;;10319437;28;20498;-57
2022/06/22 22:31:50;;;;;;;6.90;3.20;;;;;;;;;;10302117;28;20125;-60
2022/06/22 22:36:57;;;;;;;4.22;3.05;;;;;;;;;;10312650;28;20038;-62
2022/06/22 22:42:02;;;;;;;3.97;2.63;;;;;;;;;;10306482;28;20034;-59
2022/06/22 22:47:15;;;;;;;6.55;2.67;;;;;;;;;;10324980;28;20030;-59
2022/06/22 22:52:39;;;;;;;5.70;3.20;;;;;;;;;;10323208;28;20046;-56
2022/06/22 22:58:07;;;;;;;7.28;2.65;;;;;;;;;;10329223;28;20053;-59
2022/06/22 23:03:38;;;;;;;;;;;;;;;;;;10329316;28;20030;-59
2022/06/22 23:08:43;;;;;;;5.65;2.65;;;;;;;;;;10316669;28;19924;-59
2022/06/22 23:13:53;;;;;;;4.80;3.03;;;;;;;;;;10329099;28;20084;-59
2022/06/22 23:18:57;;;;;;;3.10;2.70;;;;;;;;;;10327287;28;20077;-59
2022/06/22 23:24:00;;;;;;;5.47;2.90;;;;;;;;;;10313424;28;20032;-56
2022/06/22 23:29:03;;;;;;;8.48;2.88;;;;;;;;;;10301284;28;20067;-59
2022/06/22 23:34:30;;;;;;;3.20;2.53;;;;;;;;;;10324636;28;20312;-58
2022/06/22 23:39:31;;;;;;;4.03;2.80;;;;;;;;;;10325018;28;20188;-60
2022/06/22 23:44:32;;;;;;;3.55;2.72;;;;;;;;;;10288127;28;20031;-60
2022/06/22 23:49:35;;;;;;;3.13;2.45;;;;;;;;;;10307581;28;20066;-59
2022/06/22 23:54:36;;;;;;;3.50;2.88;;;;;;;;;;10325243;28;20331;-60
2022/06/22 23:59:42;;;;;;;5.85;3.03;;;;;;;;;;10324448;28;20506;-58
